Novomar — 5BCT2 — position and weather

sailwx.info

Track history (hours):
 
Tides and Currents Weather Stations Pressure Air Temp Water Temp Dewpoint Dewpoint Depression Visibility Wind Speed Wind Dir Waves Ship Positions

Novomar

Last reported at 2014-Dec-20 16:30 UTC. Time now 2014-Dec-21 14:25 UTC.
Position N 55°37' E 015°22'.

Length 89 m; draft 4.5 m.

Type: Cargo ship. MMSI: 210974000.

Date/timePositionNaut miles runAvg speedWind from/ knotsBaromVisibWave heightAir tempDewpointWater temp
2014-Dec-20 16:30N 55°37' E 015°22'1010.2
2014-Dec-20 15:33N 55°32' E 015°07'1110.7
2014-Dec-20 14:33N 55°27' E 014°50'1110.7
2014-Dec-20 13:33N 55°20' E 014°35'10 9.6
2014-Dec-20 12:33N 55°13' E 014°25'10 9.7
2014-Dec-20 11:33N 55°06' E 014°13'10 9.6
2014-Dec-20 10:33N 55°00' E 013°59'10 9.9
2014-Dec-20 09:33N 54°57' E 013°43'5510.7
2014-Dec-20 04:26N 54°34' E 012°18'1011.4
2014-Dec-20 03:31N 54°24' E 012°09'1111.7
2014-Dec-20 02:33N 54°25' E 011°50'1212.2
2014-Dec-20 01:33N 54°29' E 011°30'1413.4
2014-Dec-20 00:33N 54°35' E 011°09'1412.6
2014-Dec-19 23:27N 54°34' E 010°45'1010.8
2014-Dec-19 22:33N 54°32' E 010°29'1010.1
2014-Dec-19 21:33N 54°26' E 010°14'6 5.5
2014-Dec-19 20:33N 54°22' E 010°08'3 3.0
2014-Dec-19 19:33N 54°22' E 010°03'7 6.8
2014-Dec-19 18:33N 54°22' E 009°52'7 7.5
2014-Dec-19 17:33N 54°18' E 009°41'7 7.0
2014-Dec-19 16:33N 54°12' E 009°34'9 8.6
2014-Dec-19 15:28N 54°07' E 009°20'8 8.8
2014-Dec-19 14:33N 53°60' E 009°17'8 7.8
2014-Dec-19 13:33N 53°54' E 009°09'4 4.3
2014-Dec-19 12:33N 53°52' E 009°02'1010.1
2014-Dec-19 11:33N 53°51' E 008°45'1010.1
2014-Dec-19 10:33N 53°58' E 008°32'1010.2
2014-Dec-19 09:33N 53°60' E 008°15'1111.2
2014-Dec-19 08:33N 53°58' E 007°56'1211.4
2014-Dec-19 07:31N 53°55' E 007°37'5611.2
2014-Dec-19 02:32N 53°41' E 006°05'1111.1
2014-Dec-19 01:33N 53°38' E 005°47'1111.0
2014-Dec-19 00:33N 53°34' E 005°30'1110.6
2014-Dec-18 23:33N 53°30' E 005°13'1010.5
2014-Dec-18 22:33N 53°27' E 004°57'30 9.2
2014-Dec-18 19:19N 53°04' E 004°25'7 9.4
2014-Dec-18 18:33N 52°57' E 004°20'9 9.3
2014-Dec-18 17:33N 52°49' E 004°13'10 9.5
2014-Dec-18 16:33N 52°42' E 004°03'1010.1
2014-Dec-18 15:33N 52°35' E 003°51'7710.7
2014-Dec-18 08:21N 51°52' E 002°06'810.7
2014-Dec-18 07:33N 51°48' E 001°54'10 9.7
2014-Dec-18 06:33N 51°49' E 001°38'9 9.1
2014-Dec-18 05:33N 51°44' E 001°25'9 9.2
2014-Dec-18 04:33N 51°38' E 001°15'10 9.8
2014-Dec-18 03:33N 51°32' E 001°02'1110.6
2014-Dec-18 02:33N 51°29' E 000°46'1111.4
2014-Dec-18 01:33N 51°29' E 000°27'4 4.4
2014-Dec-18 00:34N 51°27' E 000°21'0 0.4
2014-Dec-17 23:34N 51°28' E 000°21'0 0.0
2014-Dec-17 22:33N 51°28' E 000°21'0 0.0
2014-Dec-17 21:33N 51°28' E 000°21'0 0.0
2014-Dec-17 20:34N 51°28' E 000°21'0 0.3
2014-Dec-17 19:33N 51°27' E 000°21'0 0.0
2014-Dec-17 18:33N 51°27' E 000°21'0 0.0
2014-Dec-17 17:33N 51°27' E 000°21'0 0.0
2014-Dec-17 16:34N 51°27' E 000°21'0 0.0
2014-Dec-17 15:33N 51°27' E 000°21'0 0.0
2014-Dec-17 14:33N 51°27' E 000°21'0 0.0
2014-Dec-17 13:34N 51°27' E 000°21'0 0.0
2014-Dec-17 12:33N 51°27' E 000°21'0 0.0
2014-Dec-17 11:33N 51°27' E 000°21'0 0.0
2014-Dec-17 10:33N 51°27' E 000°21'0 0.0
2014-Dec-17 09:34N 51°27' E 000°21'0 0.0
2014-Dec-17 08:34N 51°27' E 000°21'0 0.0
2014-Dec-17 07:33N 51°27' E 000°21'0 0.0
2014-Dec-17 06:34N 51°27' E 000°21'0 0.0
2014-Dec-17 05:33N 51°27' E 000°21'0 0.0
2014-Dec-17 04:33N 51°27' E 000°21'0 0.0
2014-Dec-17 03:33N 51°27' E 000°21'0 0.0
2014-Dec-17 02:33N 51°27' E 000°21'0 0.0
2014-Dec-17 01:33N 51°27' E 000°21'0 0.0
2014-Dec-17 00:34N 51°27' E 000°21'0 0.0
2014-Dec-16 23:33N 51°27' E 000°21'0 0.0
2014-Dec-16 22:34N 51°27' E 000°21'0 0.0
2014-Dec-16 21:34N 51°27' E 000°21'0 0.0
2014-Dec-16 20:33N 51°27' E 000°21'0 0.0
2014-Dec-16 19:33N 51°27' E 000°21'0 0.0
2014-Dec-16 18:34N 51°27' E 000°21'0 0.0
2014-Dec-16 17:34N 51°27' E 000°21'0 0.0
2014-Dec-16 16:34N 51°27' E 000°21'0 0.2
2014-Dec-16 15:33N 51°27' E 000°21'0 0.3
2014-Dec-16 14:34N 51°28' E 000°21'0 0.4
2014-Dec-16 13:33N 51°27' E 000°21'4 4.1
2014-Dec-16 12:33N 51°28' E 000°27'8 8.2
2014-Dec-16 11:33N 51°30' E 000°40'9 8.6
2014-Dec-16 10:33N 51°30' E 000°54'7 7.1
2014-Dec-16 09:31N 51°33' E 001°04'6 6.5
2014-Dec-16 08:33N 51°36' E 001°13'8 7.7
2014-Dec-16 07:33N 51°42' E 001°21'8 7.9
2014-Dec-16 06:33N 51°46' E 001°32'9 9.1
2014-Dec-16 05:33N 51°51' E 001°45'9 8.6
2014-Dec-16 04:33N 51°51' E 001°59'6810.8
2014-Dec-15 22:15N 52°03' E 003°48'6 8.0
2014-Dec-15 21:33N 52°02' E 003°56'1010.0
2014-Dec-15 20:33N 51°57' E 004°11'5 4.3
2014-Dec-15 19:24N 51°53' E 004°17'0 0.0
2014-Dec-15 18:21N 51°53' E 004°17'0 0.0
2014-Dec-15 17:30N 51°53' E 004°17'0 0.0
2014-Dec-15 16:18N 51°53' E 004°17'0 0.0
2014-Dec-15 15:21N 51°53' E 004°17'0 0.0
2014-Dec-15 14:21N 51°53' E 004°17'0 0.0
2014-Dec-15 13:30N 51°53' E 004°17'0 0.0
2014-Dec-15 12:30N 51°53' E 004°17'0 0.0
2014-Dec-15 11:30N 51°53' E 004°17'0 0.0
2014-Dec-15 10:21N 51°53' E 004°17'0 0.0
2014-Dec-15 09:30N 51°53' E 004°17'0 0.0
2014-Dec-15 08:15N 51°53' E 004°17'0 0.0
2014-Dec-15 07:33N 51°53' E 004°17'0 0.0
2014-Dec-15 06:12N 51°53' E 004°17'0 0.0
2014-Dec-15 05:24N 51°53' E 004°17'1 0.7
2014-Dec-15 04:33N 51°53' E 004°17'7 6.8
2014-Dec-15 03:32N 51°54' E 004°28'0 0.0
2014-Dec-15 02:32N 51°54' E 004°28'0 0.0
2014-Dec-15 01:32N 51°54' E 004°28'0 0.0
2014-Dec-15 00:32N 51°54' E 004°28'0 0.0
2014-Dec-14 23:32N 51°54' E 004°28'0 0.0
2014-Dec-14 22:32N 51°54' E 004°28'0 0.0
2014-Dec-14 21:32N 51°54' E 004°28'0 0.0
2014-Dec-14 20:32N 51°54' E 004°28'0 0.0
2014-Dec-14 19:32N 51°54' E 004°28'0 0.0
2014-Dec-14 18:32N 51°54' E 004°28'0 0.0
2014-Dec-14 17:32N 51°54' E 004°28'0 0.0
2014-Dec-14 16:32N 51°54' E 004°28'0 0.0
2014-Dec-14 15:32N 51°54' E 004°28'0 0.0
2014-Dec-14 14:32N 51°54' E 004°28'0 0.0
2014-Dec-14 13:32N 51°54' E 004°28'0 0.0
2014-Dec-14 12:32N 51°54' E 004°28'0 0.0
2014-Dec-14 11:32N 51°54' E 004°28'0 0.0
2014-Dec-14 10:32N 51°54' E 004°28'0 0.0
2014-Dec-14 09:32N 51°54' E 004°28'0 0.0
2014-Dec-14 08:32N 51°54' E 004°28'0 0.0
2014-Dec-14 07:32N 51°54' E 004°28'0 0.0
2014-Dec-14 06:32N 51°54' E 004°28'0 0.0
2014-Dec-14 05:32N 51°54' E 004°28'0 0.0
2014-Dec-14 04:32N 51°54' E 004°28'0 0.0
2014-Dec-14 03:32N 51°54' E 004°28'0 0.0
2014-Dec-14 02:32N 51°54' E 004°28'0 0.0
2014-Dec-14 01:32N 51°54' E 004°28'0 0.0
2014-Dec-14 00:32N 51°54' E 004°28'0 0.0
2014-Dec-13 23:32N 51°54' E 004°28'0 0.0
2014-Dec-13 22:32N 51°54' E 004°28'0 0.0
2014-Dec-13 21:32N 51°54' E 004°28'0 0.0
2014-Dec-13 20:32N 51°54' E 004°28'0 0.0
2014-Dec-13 19:32N 51°54' E 004°28'0 0.0
2014-Dec-13 18:32N 51°54' E 004°28'5 5.2
2014-Dec-13 17:33N 51°54' E 004°20'1010.0
2014-Dec-13 16:33N 51°59' E 004°06'9 9.1
2014-Dec-13 15:33N 52°00' E 003°52'129 8.4
2014-Dec-13 00:11N 54°04' E 004°52'302 6.7
2014-Dec-11 03:07N 59°06' E 004°60'  
Track history (hours):
 
Tides and Currents Weather Stations Pressure Air Temp Water Temp Dewpoint Dewpoint Depression Visibility Wind Speed Wind Dir Waves Ship Positions

Novomar

Last reported at 2014-Dec-20 16:30 UTC. Time now 2014-Dec-21 14:25 UTC.
Position N 55°37' E 015°22'.

Length 89 m; draft 4.5 m.

Type: Cargo ship. MMSI: 210974000.

Date/timePositionNaut miles runAvg speedWind from/ knotsBaromVisibWave heightAir tempDewpointWater temp
2014-Dec-20 16:30N 55°37' E 015°22'1010.2
2014-Dec-20 15:33N 55°32' E 015°07'1110.7
2014-Dec-20 14:33N 55°27' E 014°50'1110.7
2014-Dec-20 13:33N 55°20' E 014°35'10 9.6
2014-Dec-20 12:33N 55°13' E 014°25'10 9.7
2014-Dec-20 11:33N 55°06' E 014°13'10 9.6
2014-Dec-20 10:33N 55°00' E 013°59'10 9.9
2014-Dec-20 09:33N 54°57' E 013°43'5510.7
2014-Dec-20 04:26N 54°34' E 012°18'1011.4
2014-Dec-20 03:31N 54°24' E 012°09'1111.7
2014-Dec-20 02:33N 54°25' E 011°50'1212.2
2014-Dec-20 01:33N 54°29' E 011°30'1413.4
2014-Dec-20 00:33N 54°35' E 011°09'1412.6
2014-Dec-19 23:27N 54°34' E 010°45'1010.8
2014-Dec-19 22:33N 54°32' E 010°29'1010.1
2014-Dec-19 21:33N 54°26' E 010°14'6 5.5
2014-Dec-19 20:33N 54°22' E 010°08'3 3.0
2014-Dec-19 19:33N 54°22' E 010°03'7 6.8
2014-Dec-19 18:33N 54°22' E 009°52'7 7.5
2014-Dec-19 17:33N 54°18' E 009°41'7 7.0
2014-Dec-19 16:33N 54°12' E 009°34'9 8.6
2014-Dec-19 15:28N 54°07' E 009°20'8 8.8
2014-Dec-19 14:33N 53°60' E 009°17'8 7.8
2014-Dec-19 13:33N 53°54' E 009°09'4 4.3
2014-Dec-19 12:33N 53°52' E 009°02'1010.1
2014-Dec-19 11:33N 53°51' E 008°45'1010.1
2014-Dec-19 10:33N 53°58' E 008°32'1010.2
2014-Dec-19 09:33N 53°60' E 008°15'1111.2
2014-Dec-19 08:33N 53°58' E 007°56'1211.4
2014-Dec-19 07:31N 53°55' E 007°37'5611.2
2014-Dec-19 02:32N 53°41' E 006°05'1111.1
2014-Dec-19 01:33N 53°38' E 005°47'1111.0
2014-Dec-19 00:33N 53°34' E 005°30'1110.6
2014-Dec-18 23:33N 53°30' E 005°13'1010.5
2014-Dec-18 22:33N 53°27' E 004°57'30 9.2
2014-Dec-18 19:19N 53°04' E 004°25'7 9.4
2014-Dec-18 18:33N 52°57' E 004°20'9 9.3
2014-Dec-18 17:33N 52°49' E 004°13'10 9.5
2014-Dec-18 16:33N 52°42' E 004°03'1010.1
2014-Dec-18 15:33N 52°35' E 003°51'7710.7
2014-Dec-18 08:21N 51°52' E 002°06'810.7
2014-Dec-18 07:33N 51°48' E 001°54'10 9.7
2014-Dec-18 06:33N 51°49' E 001°38'9 9.1
2014-Dec-18 05:33N 51°44' E 001°25'9 9.2
2014-Dec-18 04:33N 51°38' E 001°15'10 9.8
2014-Dec-18 03:33N 51°32' E 001°02'1110.6
2014-Dec-18 02:33N 51°29' E 000°46'1111.4
2014-Dec-18 01:33N 51°29' E 000°27'4 4.4
2014-Dec-18 00:34N 51°27' E 000°21'0 0.4
2014-Dec-17 23:34N 51°28' E 000°21'0 0.0
2014-Dec-17 22:33N 51°28' E 000°21'0 0.0
2014-Dec-17 21:33N 51°28' E 000°21'0 0.0
2014-Dec-17 20:34N 51°28' E 000°21'0 0.3
2014-Dec-17 19:33N 51°27' E 000°21'0 0.0
2014-Dec-17 18:33N 51°27' E 000°21'0 0.0
2014-Dec-17 17:33N 51°27' E 000°21'0 0.0
2014-Dec-17 16:34N 51°27' E 000°21'0 0.0
2014-Dec-17 15:33N 51°27' E 000°21'0 0.0
2014-Dec-17 14:33N 51°27' E 000°21'0 0.0
2014-Dec-17 13:34N 51°27' E 000°21'0 0.0
2014-Dec-17 12:33N 51°27' E 000°21'0 0.0
2014-Dec-17 11:33N 51°27' E 000°21'0 0.0
2014-Dec-17 10:33N 51°27' E 000°21'0 0.0
2014-Dec-17 09:34N 51°27' E 000°21'0 0.0
2014-Dec-17 08:34N 51°27' E 000°21'0 0.0
2014-Dec-17 07:33N 51°27' E 000°21'0 0.0
2014-Dec-17 06:34N 51°27' E 000°21'0 0.0
2014-Dec-17 05:33N 51°27' E 000°21'0 0.0
2014-Dec-17 04:33N 51°27' E 000°21'0 0.0
2014-Dec-17 03:33N 51°27' E 000°21'0 0.0
2014-Dec-17 02:33N 51°27' E 000°21'0 0.0
2014-Dec-17 01:33N 51°27' E 000°21'0 0.0
2014-Dec-17 00:34N 51°27' E 000°21'0 0.0
2014-Dec-16 23:33N 51°27' E 000°21'0 0.0
2014-Dec-16 22:34N 51°27' E 000°21'0 0.0
2014-Dec-16 21:34N 51°27' E 000°21'0 0.0
2014-Dec-16 20:33N 51°27' E 000°21'0 0.0
2014-Dec-16 19:33N 51°27' E 000°21'0 0.0
2014-Dec-16 18:34N 51°27' E 000°21'0 0.0
2014-Dec-16 17:34N 51°27' E 000°21'0 0.0
2014-Dec-16 16:34N 51°27' E 000°21'0 0.2
2014-Dec-16 15:33N 51°27' E 000°21'0 0.3
2014-Dec-16 14:34N 51°28' E 000°21'0 0.4
2014-Dec-16 13:33N 51°27' E 000°21'4 4.1
2014-Dec-16 12:33N 51°28' E 000°27'8 8.2
2014-Dec-16 11:33N 51°30' E 000°40'9 8.6
2014-Dec-16 10:33N 51°30' E 000°54'7 7.1
2014-Dec-16 09:31N 51°33' E 001°04'6 6.5
2014-Dec-16 08:33N 51°36' E 001°13'8 7.7
2014-Dec-16 07:33N 51°42' E 001°21'8 7.9
2014-Dec-16 06:33N 51°46' E 001°32'9 9.1
2014-Dec-16 05:33N 51°51' E 001°45'9 8.6
2014-Dec-16 04:33N 51°51' E 001°59'6810.8
2014-Dec-15 22:15N 52°03' E 003°48'6 8.0
2014-Dec-15 21:33N 52°02' E 003°56'1010.0
2014-Dec-15 20:33N 51°57' E 004°11'5 4.3
2014-Dec-15 19:24N 51°53' E 004°17'0 0.0
2014-Dec-15 18:21N 51°53' E 004°17'0 0.0
2014-Dec-15 17:30N 51°53' E 004°17'0 0.0
2014-Dec-15 16:18N 51°53' E 004°17'0 0.0
2014-Dec-15 15:21N 51°53' E 004°17'0 0.0
2014-Dec-15 14:21N 51°53' E 004°17'0 0.0
2014-Dec-15 13:30N 51°53' E 004°17'0 0.0
2014-Dec-15 12:30N 51°53' E 004°17'0 0.0
2014-Dec-15 11:30N 51°53' E 004°17'0 0.0
2014-Dec-15 10:21N 51°53' E 004°17'0 0.0
2014-Dec-15 09:30N 51°53' E 004°17'0 0.0
2014-Dec-15 08:15N 51°53' E 004°17'0 0.0
2014-Dec-15 07:33N 51°53' E 004°17'0 0.0
2014-Dec-15 06:12N 51°53' E 004°17'0 0.0
2014-Dec-15 05:24N 51°53' E 004°17'1 0.7
2014-Dec-15 04:33N 51°53' E 004°17'7 6.8
2014-Dec-15 03:32N 51°54' E 004°28'0 0.0
2014-Dec-15 02:32N 51°54' E 004°28'0 0.0
2014-Dec-15 01:32N 51°54' E 004°28'0 0.0
2014-Dec-15 00:32N 51°54' E 004°28'0 0.0
2014-Dec-14 23:32N 51°54' E 004°28'0 0.0
2014-Dec-14 22:32N 51°54' E 004°28'0 0.0
2014-Dec-14 21:32N 51°54' E 004°28'0 0.0
2014-Dec-14 20:32N 51°54' E 004°28'0 0.0
2014-Dec-14 19:32N 51°54' E 004°28'0 0.0
2014-Dec-14 18:32N 51°54' E 004°28'0 0.0
2014-Dec-14 17:32N 51°54' E 004°28'0 0.0
2014-Dec-14 16:32N 51°54' E 004°28'0 0.0
2014-Dec-14 15:32N 51°54' E 004°28'0 0.0
2014-Dec-14 14:32N 51°54' E 004°28'0 0.0
2014-Dec-14 13:32N 51°54' E 004°28'0 0.0
2014-Dec-14 12:32N 51°54' E 004°28'0 0.0
2014-Dec-14 11:32N 51°54' E 004°28'0 0.0
2014-Dec-14 10:32N 51°54' E 004°28'0 0.0
2014-Dec-14 09:32N 51°54' E 004°28'0 0.0
2014-Dec-14 08:32N 51°54' E 004°28'0 0.0
2014-Dec-14 07:32N 51°54' E 004°28'0 0.0
2014-Dec-14 06:32N 51°54' E 004°28'0 0.0
2014-Dec-14 05:32N 51°54' E 004°28'0 0.0
2014-Dec-14 04:32N 51°54' E 004°28'0 0.0
2014-Dec-14 03:32N 51°54' E 004°28'0 0.0
2014-Dec-14 02:32N 51°54' E 004°28'0 0.0
2014-Dec-14 01:32N 51°54' E 004°28'0 0.0
2014-Dec-14 00:32N 51°54' E 004°28'0 0.0
2014-Dec-13 23:32N 51°54' E 004°28'0 0.0
2014-Dec-13 22:32N 51°54' E 004°28'0 0.0
2014-Dec-13 21:32N 51°54' E 004°28'0 0.0
2014-Dec-13 20:32N 51°54' E 004°28'0 0.0
2014-Dec-13 19:32N 51°54' E 004°28'0 0.0
2014-Dec-13 18:32N 51°54' E 004°28'5 5.2
2014-Dec-13 17:33N 51°54' E 004°20'1010.0
2014-Dec-13 16:33N 51°59' E 004°06'9 9.1
2014-Dec-13 15:33N 52°00' E 003°52'129 8.4
2014-Dec-13 00:11N 54°04' E 004°52'302 6.7
2014-Dec-11 03:07N 59°06' E 004°60'  

Dump ship's entire track history